ADDS METAR Data INFO
IDs: Format: Raw Decoded Include TAF

Data at: 2352 UTC 23 Feb 2018

KHAO 232302Z AUTO 20004KT 10SM BKN031 BKN120 14/13 A3022 RMK AO2 T01440133
KHAO 232253Z AUTO 20004KT 10SM OVC029 14/13 A3022 RMK AO2 RAE2156 SLP235 P0000 T01440133
KHAO 232239Z AUTO 24005KT 10SM FEW018 BKN027 OVC034 14/14 A3023 RMK AO2 RAE2156 P0000 T01440139
KHAO 232203Z AUTO 23006KT 10SM SCT016 OVC032 15/14 A3022 RMK AO2 RAE2156 P0000 T01500139
KHAO 232153Z AUTO 27005KT 10SM -RA BKN014 OVC032 15/14 A3022 RMK AO2 RAB11 SLP235 P0000 T01500139
KHAO 232115Z AUTO 26008KT 10SM -RA BKN015 BKN021 16/15 A3021 RMK AO2 RAB11 P0000 T01560150
KHAO 232053Z AUTO 26007KT 10SM FEW120 16/16 A3021 RMK AO2 RAE06 SLP231 P0000 60003 T01610156 53003 $
KHAO 232006Z AUTO 27007KT 10SM FEW009 SCT015 BKN050 16/16 A3021 RMK AO2 RAE06 P0000 T01560156 $
KHAO 231953Z AUTO 27007G17KT 5SM -RA BR SCT011 BKN015 OVC033 16/16 A3020 RMK AO2 RAE08B26 SLP228 P0002 T01560156 $
KHAO 231931Z AUTO 25009KT 10SM -RA FEW009 BKN015 OVC021 16/16 A3021 RMK AO2 RAE08B26 P0001 T01610161
KHAO 231918Z AUTO 27007KT 10SM BKN015 OVC022 17/17 A3021 RMK AO2 RAE08 P0001 T01670167
KHAO 231858Z AUTO 25006KT 3SM -RA BR SCT008 BKN012 OVC019 16/16 A3020 RMK AO2 P0001 T01610161
KHAO 231853Z AUTO 22006KT 1 3/4SM -RA BR FEW006 OVC011 16/16 A3019 RMK AO2 RAB25 SLP225 P0001 T01610161
KHAO 231851Z AUTO 24006KT 1 1/2SM -RA BR BKN009 OVC013 16/16 A3020 RMK AO2 RAB25 CIG 005V011 P0001
KHAO 231844Z AUTO 25006KT 1 1/2SM -RA BR FEW006 OVC011 16/16 A3021 RMK AO2 RAB25 P0001 T01610161
KHAO 231837Z AUTO 26007KT 1 3/4SM -RA BR BKN010 OVC013 17/17 A3021 RMK AO2 RAB25 CIG 006V011 P0000 T01670167
KHAO 231753Z AUTO 24008KT 8SM OVC010 16/16 A3022 RMK AO2 RAE39 CIG 007V012 SLP234 P0002 60009 T01610161 10167 20094 50002
KHAO 231726Z AUTO 23009G16KT 3SM -RA BR OVC010 16/16 A3023 RMK AO2 CIG 006V012 P0001 T01610161
KHAO 231722Z AUTO 23009G15KT 2SM -RA BR BKN008 OVC012 16/16 A3023 RMK AO2 CIG 006V010 P0001 T01610161
KHAO 231718Z AUTO 23009G19KT 1 1/2SM -RA BR BKN008 BKN012 OVC018 16/16 A3023 RMK AO2 CIG 006V010 P0001 T01610161
KHAO 231713Z AUTO 22009G19KT 1 3/4SM -RA BR SCT008 OVC012 16/16 A3023 RMK AO2 P0001 T01610161
KHAO 231653Z AUTO 21010G15KT 5SM -RA BR OVC012 16/16 A3023 RMK AO2 SLP239 P0001 T01610161
KHAO 231553Z AUTO 22008KT 10SM -RA OVC011 16/15 A3022 RMK AO2 RAB22 SLP235 P0003 T01560150
KHAO 231543Z AUTO 22008KT 3SM -RA BR BKN011 OVC015 15/15 A3022 RMK AO2 RAB22 P0003 T01500150
KHAO 231536Z AUTO 22008G16KT 1 3/4SM RA BR OVC011 15/15 A3022 RMK AO2 RAB22 P0002 T01500150
KHAO 231521Z AUTO 22009KT 10SM OVC010 15/14 A3021 RMK AO2 T01500144
KHAO 231453Z AUTO VRB06KT 10SM OVC008 14/14 A3022 RMK AO2 CIG 007V011 SLP233 60003 T01390139 55002
KHAO 231423Z AUTO 00000KT 10SM BKN009 OVC013 13/13 A3022 RMK AO2 CIG 006V010 T01280128
KHAO 231412Z AUTO VRB03KT 10SM SCT007 OVC013 13/13 A3022 RMK AO2 T01280128
KHAO 231353Z AUTO 00000KT 10SM OVC007 12/12 A3021 RMK AO2 RAE1259B24E33 CIG 006V011 SLP232 P0000 T01220122
KHAO 231322Z AUTO VRB05KT 8SM BKN009 BKN012 OVC025 12/12 A3022 RMK AO2 RAE1259 P0000 T01170117
KHAO 231303Z AUTO VRB05KT 10SM SCT004 BKN012 OVC024 12/12 A3021 RMK AO2 RAE1259 P0000 T01170117
KHAO 231253Z AUTO VRB04KT 10SM -RA BKN004 BKN012 OVC019 11/11 A3021 RMK AO2 SLP230 P0003 T01110111
KHAO 231153Z AUTO 11005KT 4SM RA BR OVC004 09/09 A3022 RMK AO2 SLP236 P0017 60039 70042 T00940094 10094 20078 56019
KHAO 231126Z AUTO 11004KT 3SM +RA BR BKN004 BKN044 OVC070 09/09 A3024 RMK AO2 P0011 T00890089
KHAO 231053Z AUTO 12004KT 3SM +RA BR SCT004 BKN050 OVC060 08/08 A3024 RMK AO2 SLP244 P0014 T00830083
KHAO 231003Z AUTO 00000KT 3SM RA BR OVC002 08/08 A3028 RMK AO2 P0001 T00830083
KHAO 230953Z AUTO 12004KT 2 1/2SM RA BR OVC002 08/08 A3028 RMK AO2 SLP255 P0007 T00780078
KHAO 230908Z AUTO 10004KT 2SM -RA BR OVC003 08/08 A3029 RMK AO2 P0000 T00780078
KHAO 230853Z AUTO 00000KT 1 1/4SM -RA BR OVC003 08/08 A3031 RMK AO2 RAB17 SLP266 P0001 60001 T00780078 57019
KHAO 230824Z AUTO 00000KT 1SM -RA BR VV003 08/08 A3031 RMK AO2 RAB17 P0000 T00780078
KHAO 230813Z AUTO 09003KT 3/4SM BR OVC002 08/08 A3031 RMK AO2 T00780078
KHAO 230753Z AUTO 00000KT 1 1/2SM BR OVC002 08/08 A3033 RMK AO2 SLP275 T00780078
KHAO 230751Z AUTO 00000KT 1 1/2SM BR OVC002 08/08 A3034 RMK AO2
KHAO 230731Z AUTO 00000KT 2SM BR OVC003 08/08 A3034 RMK AO2 T00780078
KHAO 230653Z AUTO 09003KT 1 1/4SM BR OVC003 08/08 A3034 RMK AO2 SLP276 T00780078
KHAO 230622Z AUTO 10003KT 1 1/2SM BR OVC004 08/08 A3035 RMK AO2 T00780078
KHAO 230611Z AUTO 09003KT 1 1/2SM BR OVC005 08/08 A3035 RMK AO2 T00780078
KHAO 230600Z AUTO 00000KT 1 3/4SM BR OVC005 08/08 A3036 RMK AO2 T00780078
KHAO 230553Z AUTO 00000KT 1 3/4SM BR OVC006 08/08 A3036 RMK AO2 SLP285 T00780078 10078 20072 56005
KHAO 230548Z AUTO 09003KT 2SM BR OVC006 08/08 A3037 RMK AO2
KHAO 230453Z AUTO 00000KT 8SM OVC006 08/07 A3037 RMK AO2 SLP287 T00780072 400830039
KHAO 230353Z AUTO 10004KT 5SM BR OVC006 07/07 A3038 RMK AO2 SLP292 T00720072
KHAO 230253Z AUTO 08004KT 4SM BR OVC006 08/07 A3040 RMK AO2 SLP296 T00780072 58004
KHAO 230153Z AUTO 10003KT 10SM OVC008 08/07 A3041 RMK AO2 SLP301 T00780067
KHAO 230053Z AUTO 10006KT 10SM OVC009 07/07 A3040 RMK AO2 CIG 007V013 SLP299 T00720067
KHAO 230048Z AUTO 09005KT 10SM OVC009 07/07 A3041 RMK AO2 CIG 007V012
KHAO 222353Z AUTO 09010KT 10SM OVC011 08/06 A3040 RMK AO2 SLP299 T00780061 10083 20072 55007
KHAO 222253Z AUTO 10010KT 10SM OVC012 08/06 A3039 RMK AO2 SLP295 T00780056
KHAO 222153Z AUTO 08008KT 10SM OVC013 08/06 A3040 RMK AO2 SLP300 T00780056
KHAO 222105Z AUTO 08008KT 10SM OVC014 08/06 A3043 RMK AO2 T00780056
KHAO 222053Z AUTO 09010KT 10SM OVC015 08/06 A3042 RMK AO2 SLP306 T00780056 55009
KHAO 221953Z AUTO 09011KT 10SM OVC015 08/M01 A3041 RMK AO2 SLP303 T00831011
KHAO 221853Z AUTO 07012KT 10SM OVC015 08/M01 A3042 RMK AO2 SLP306 T00781011
KHAO 221842Z AUTO 07008KT 10SM OVC015 08/M01 A3043 RMK AO2 T00781011
KHAO 221753Z AUTO 08009KT 10SM OVC013 07/M01 A3045 RMK AO2 SLP315 60003 T00721006 10072 20044 58013
KHAO 221653Z AUTO 05012KT 10SM OVC011 06/M01 A3045 RMK AO2 SLP316 T00611006
KHAO 221553Z AUTO 03011G16KT 4SM HZ SCT008 OVC013 06/M01 A3049 RMK AO2 RAE11B41E43 SLP328 P0001 T00561006
KHAO 221551Z AUTO 03012G16KT 4SM HZ BKN010 OVC013 06/M01 A3049 RMK AO2 RAE11B41E43 CIG 006V012 P0001
KHAO 221543Z AUTO 04008KT 3SM HZ FEW007 OVC015 06/M01 A3048 RMK AO2 RAE11B41E43 P0001 T00561006
KHAO 221531Z AUTO 03010KT 2 1/2SM HZ OVC012 06/M01 A3049 RMK AO2 RAE11 P0001 T00561006
KHAO 221504Z AUTO 05006KT 2SM -RA OVC017 06/M01 A3049 RMK AO2 P0000 T00561006
KHAO 221453Z AUTO 05007KT 5SM -RA OVC016 06/M01 A3048 RMK AO2 RAB52 SLP327 P0000 60002 T00611006 53028
KHAO 221414Z AUTO 33004KT 10SM OVC015 06/M01 A3046 RMK AO2 T00561006
KHAO 221353Z AUTO 09013G24KT 10SM OVC014 05/M01 A3036 RMK AO2 PK WND 09028/1317 RAE24 SLP283 P0000 T00501006
KHAO 221329Z AUTO 08015KT 10SM BKN013 BKN040 05/M01 A3035 RMK AO2 PK WND 09028/1317 RAE24 P0000 T00501006
KHAO 221253Z AUTO 09012KT 10SM -RA FEW022 SCT085 OVC100 04/M01 A3039 RMK AO2 SLP294 P0002 T00441006
KHAO 221153Z AUTO 06012KT 8SM -RA OVC085 05/M01 A3040 RMK AO2 SLP298 P0003 60031 70075 T00501006 10050 20039 56009